createdAt,value
2022-08-12T00:01:18.991Z,75.90
2022-08-12T00:06:42.417Z,75.80
2022-08-12T00:11:44.673Z,76.00
2022-08-12T00:17:01.408Z,76.00
2022-08-12T00:27:57.439Z,78.30
2022-08-12T01:00:23.818Z,90.30
2022-08-12T01:05:41.279Z,88.30
2022-08-12T01:11:22.964Z,90.10
2022-08-12T01:27:41.322Z,88.30
2022-08-12T01:32:47.658Z,87.70
2022-08-12T01:37:57.587Z,88.10
2022-08-12T01:43:11.828Z,87.10
2022-08-12T01:54:02.104Z,89.40
2022-08-12T01:59:07.060Z,89.70
2022-08-12T02:04:21.793Z,86.70
2022-08-12T02:09:42.383Z,85.80
2022-08-12T02:14:53.317Z,87.00
2022-08-12T02:20:10.006Z,86.90
2022-08-12T02:25:16.133Z,86.10
2022-08-12T02:30:21.460Z,87.00
2022-08-12T02:35:24.023Z,90.30
2022-08-12T02:40:27.713Z,91.70
2022-08-12T02:45:41.807Z,93.50
2022-08-12T02:50:48.801Z,93.20
2022-08-12T02:55:51.071Z,91.50
2022-08-12T03:00:54.693Z,91.50
2022-08-12T03:06:00.174Z,92.70
2022-08-12T03:11:25.874Z,93.90
2022-08-12T03:16:33.239Z,94.70
2022-08-12T03:21:52.739Z,96.20
2022-08-12T03:27:00.655Z,97.10
2022-08-12T03:32:05.624Z,98.00
2022-08-12T03:37:11.083Z,98.00
2022-08-12T03:42:21.301Z,99.00
2022-08-12T03:47:33.857Z,99.00
2022-08-12T03:52:35.898Z,99.40
2022-08-12T03:57:38.007Z,99.90
2022-08-12T04:02:44.378Z,99.90
2022-08-12T04:07:56.340Z,99.90
2022-08-12T04:13:00.434Z,99.90
2022-08-12T04:18:06.475Z,99.90
2022-08-12T04:23:10.370Z,99.90
2022-08-12T04:28:26.012Z,99.90
2022-08-12T04:33:29.322Z,99.90
2022-08-12T04:38:33.423Z,99.90
2022-08-12T07:38:35.275Z,58.80
2022-08-12T07:43:49.770Z,58.40
2022-08-12T08:00:03.400Z,56.80
2022-08-12T08:05:05.373Z,56.20
2022-08-12T08:10:09.929Z,55.40
2022-08-12T08:15:14.112Z,55.00
2022-08-12T08:20:15.896Z,53.90
2022-08-12T08:25:34.503Z,51.30
2022-08-12T08:30:43.428Z,51.10
2022-08-12T08:35:46.769Z,51.90
2022-08-12T08:40:49.422Z,52.40
2022-08-12T08:45:54.305Z,50.60
2022-08-12T08:50:57.728Z,51.30
2022-08-12T08:56:07.306Z,50.00
2022-08-12T09:01:10.485Z,50.30
2022-08-12T09:06:19.904Z,48.80
2022-08-12T09:12:11.485Z,48.30
2022-08-12T09:17:04.948Z,49.60
2022-08-12T09:22:08.266Z,47.20
2022-08-12T09:27:12.165Z,45.60
2022-08-12T09:32:31.507Z,43.90
2022-08-12T09:37:58.845Z,44.10
2022-08-12T09:43:16.113Z,44.70
2022-08-12T09:48:22.046Z,46.10
2022-08-12T09:53:36.271Z,42.30
2022-08-12T09:58:58.733Z,44.40
2022-08-12T10:04:05.576Z,42.40
2022-08-12T10:09:09.498Z,43.50
2022-08-12T10:14:13.302Z,43.60
2022-08-12T10:19:17.929Z,41.80
2022-08-12T10:24:20.443Z,43.70
2022-08-12T10:30:37.025Z,43.70
2022-08-12T10:34:53.761Z,41.40
2022-08-12T10:40:02.009Z,42.30
2022-08-12T10:45:14.275Z,41.70
2022-08-12T10:50:28.229Z,38.70
2022-08-12T10:55:39.249Z,38.50
2022-08-12T11:00:55.128Z,40.00
2022-08-12T11:07:05.239Z,39.60
2022-08-12T11:12:35.594Z,39.20
2022-08-12T11:17:34.041Z,38.30
2022-08-12T11:22:12.529Z,38.60
2022-08-12T11:27:16.314Z,38.80
2022-08-12T11:32:18.626Z,38.80
2022-08-12T11:37:24.714Z,36.50
2022-08-12T11:42:32.344Z,37.30
2022-08-12T11:47:40.238Z,39.40
2022-08-12T11:52:55.592Z,37.10
2022-08-12T11:58:17.212Z,37.70
2022-08-12T12:03:19.882Z,38.00
2022-08-12T12:08:38.901Z,36.20
2022-08-12T12:14:08.175Z,37.10
2022-08-12T12:19:05.798Z,36.50
2022-08-12T12:24:09.216Z,35.80
2022-08-12T12:30:14.909Z,37.20
2022-08-12T12:34:33.105Z,36.00
2022-08-12T12:39:55.410Z,36.30
2022-08-12T12:44:57.561Z,36.60
2022-08-12T12:49:59.463Z,36.60
2022-08-12T12:55:03.139Z,38.40
2022-08-12T13:00:06.217Z,37.40
2022-08-12T13:05:11.815Z,35.10
2022-08-12T13:10:17.238Z,35.30
2022-08-12T13:15:43.514Z,35.00
2022-08-12T13:20:44.671Z,36.50
2022-08-12T13:25:47.926Z,35.70
2022-08-12T13:30:55.991Z,36.70
2022-08-12T13:36:05.646Z,36.10
2022-08-12T13:41:14.828Z,34.90
2022-08-12T13:46:20.007Z,36.00
2022-08-12T13:51:24.426Z,35.90
2022-08-12T13:56:33.495Z,35.20
2022-08-12T14:01:40.451Z,36.00
2022-08-12T14:06:44.763Z,36.30
2022-08-12T14:11:59.092Z,35.20
2022-08-12T14:17:01.568Z,35.70
2022-08-12T14:22:07.232Z,36.60
2022-08-12T14:27:13.186Z,37.70
2022-08-12T14:32:16.505Z,35.70
2022-08-12T14:37:54.998Z,34.50
2022-08-12T14:42:43.087Z,36.60
2022-08-12T14:47:49.982Z,36.90
2022-08-12T14:58:15.741Z,38.00
2022-08-12T15:03:17.586Z,36.70
2022-08-12T15:08:24.711Z,37.50
2022-08-12T15:13:34.201Z,38.30
2022-08-12T15:18:55.527Z,38.50
2022-08-12T15:24:01.411Z,39.00
2022-08-12T15:29:04.711Z,39.40
2022-08-12T15:34:08.143Z,37.80
2022-08-12T15:39:16.674Z,39.50
2022-08-12T15:44:41.796Z,35.50
2022-08-12T15:49:43.441Z,36.00
2022-08-12T15:55:06.061Z,37.10
2022-08-12T16:00:31.764Z,38.00
2022-08-12T16:06:13.211Z,37.00
2022-08-12T16:11:07.292Z,35.90
2022-08-12T16:16:37.338Z,36.30
2022-08-12T16:21:52.059Z,37.70
2022-08-12T16:27:00.268Z,38.20
2022-08-12T16:32:04.386Z,37.70
2022-08-12T16:37:07.126Z,38.00
2022-08-12T16:42:09.326Z,37.90
2022-08-12T16:47:12.851Z,37.90
2022-08-12T16:52:18.196Z,37.30
2022-08-12T16:57:34.841Z,38.90
2022-08-12T17:02:44.798Z,38.30
2022-08-12T17:08:00.452Z,38.50
2022-08-12T17:13:09.530Z,39.40
2022-08-12T17:18:39.238Z,38.80
2022-08-12T17:23:48.659Z,38.90
2022-08-12T17:28:57.546Z,40.70
2022-08-12T17:34:00.874Z,41.10
2022-08-12T17:39:04.291Z,43.60
2022-08-12T17:44:11.418Z,41.70
2022-08-12T17:50:01.512Z,44.20
2022-08-12T17:54:39.575Z,42.10
2022-08-12T17:59:47.869Z,42.20
2022-08-12T18:05:05.212Z,42.00
2022-08-12T18:10:12.619Z,41.80
2022-08-12T18:15:26.047Z,42.10
2022-08-12T18:20:36.340Z,41.80
2022-08-12T18:26:14.531Z,42.30
2022-08-12T18:31:03.271Z,44.10
2022-08-12T18:36:08.140Z,45.90
2022-08-12T18:41:20.908Z,45.00
2022-08-12T18:46:30.675Z,46.50
2022-08-12T18:51:45.923Z,46.60
2022-08-12T18:56:52.104Z,48.00
2022-08-12T19:02:21.305Z,48.40
2022-08-12T19:07:23.357Z,49.40
2022-08-12T19:12:30.247Z,51.60
2022-08-12T19:17:47.492Z,52.10
2022-08-12T19:22:58.045Z,51.30
2022-08-12T19:28:05.515Z,53.50
2022-08-12T19:33:08.610Z,54.20
2022-08-12T21:02:45.879Z,64.70
2022-08-12T21:07:52.648Z,64.70
2022-08-12T21:12:54.794Z,64.50
2022-08-12T21:18:11.031Z,64.30
2022-08-12T21:23:23.945Z,64.80
2022-08-12T21:28:31.431Z,64.10
2022-08-12T21:33:58.903Z,64.40
2022-08-12T21:38:57.736Z,63.80
2022-08-12T21:44:01.679Z,65.80
2022-08-12T21:49:05.716Z,67.00
2022-08-12T21:54:09.873Z,66.50
2022-08-12T21:59:13.647Z,66.90
2022-08-12T22:04:18.259Z,68.10
2022-08-12T22:09:22.041Z,69.30
2022-08-12T22:14:24.202Z,72.10
2022-08-12T22:19:27.532Z,71.80
2022-08-12T22:24:30.707Z,69.90
2022-08-12T22:29:32.832Z,70.60
2022-08-12T22:34:36.879Z,72.40
2022-08-12T22:45:00.715Z,74.30
2022-08-12T22:50:05.866Z,77.90
2022-08-12T22:55:08.221Z,79.60
2022-08-12T23:00:24.631Z,82.70
2022-08-12T23:10:59.133Z,86.20
2022-08-12T23:16:01.644Z,90.60
2022-08-12T23:21:05.065Z,93.00
2022-08-12T23:26:15.639Z,94.40
2022-08-12T23:31:23.101Z,94.40
2022-08-12T23:36:39.783Z,95.40
2022-08-12T23:41:56.680Z,96.50
2022-08-12T23:47:07.894Z,98.90
2022-08-12T23:52:12.230Z,98.50
2022-08-12T23:57:14.937Z,98.20
